Time;durP1;ratioP1;P1;durP2;ratioP2;P2;SDS_P1;SDS_P2;PMS_P1;PMS_P2;Temp;Humidity;BMP_temperature;BMP_pressure;BME280_temperature;BME280_humidity;BME280_pressure;Samples;Min_cycle;Max_cycle;Signal;HPM_P1;HPM_P2
2023/10/22 00:01:43;;;;;;;11.10;10.60;;;;;;;;;;5067106;28;20053;-64
2023/10/22 00:04:08;;;;;;;10.57;10.07;;;;;;;;;;5067019;28;20027;-65
2023/10/22 00:06:34;;;;;;;10.88;10.38;;;;;;;;;;5058911;28;20108;-65
2023/10/22 00:08:59;;;;;;;11.00;10.50;;;;;;;;;;5065790;28;20481;-64
2023/10/22 00:11:24;;;;;;;11.18;10.68;;;;;;;;;;5063242;28;20033;-65
2023/10/22 00:13:50;;;;;;;11.00;10.50;;;;;;;;;;5063076;28;20055;-64
2023/10/22 00:16:15;;;;;;;11.32;10.82;;;;;;;;;;5066625;28;20052;-64
2023/10/22 00:18:40;;;;;;;10.80;10.30;;;;;;;;;;5061551;28;20042;-64
2023/10/22 00:21:06;;;;;;;10.57;10.07;;;;;;;;;;5067165;28;20021;-64
2023/10/22 00:23:31;;;;;;;10.80;10.30;;;;;;;;;;5067652;28;20039;-64
2023/10/22 00:25:56;;;;;;;10.90;10.40;;;;;;;;;;5065105;28;20481;-64
2023/10/22 00:28:22;;;;;;;10.80;10.30;;;;;;;;;;5060209;28;20115;-64
2023/10/22 00:30:47;;;;;;;11.02;10.52;;;;;;;;;;5066969;28;20067;-65
2023/10/22 00:33:12;;;;;;;10.70;10.20;;;;;;;;;;5065769;28;20017;-65
2023/10/22 00:35:38;;;;;;;10.95;10.45;;;;;;;;;;5058884;28;20029;-65
2023/10/22 00:38:03;;;;;;;10.82;10.32;;;;;;;;;;5064975;28;20545;-65
2023/10/22 00:40:28;;;;;;;10.90;10.40;;;;;;;;;;5068798;28;20032;-66
2023/10/22 00:42:54;;;;;;;10.75;10.25;;;;;;;;;;5061663;28;20028;-64
2023/10/22 00:45:20;;;;;;;11.18;10.68;;;;;;;;;;5061158;28;20028;-64
2023/10/22 00:47:45;;;;;;;10.82;10.32;;;;;;;;;;5059907;28;20025;-65
2023/10/22 00:50:10;;;;;;;11.00;10.50;;;;;;;;;;5068553;28;20679;-64
2023/10/22 00:52:36;;;;;;;11.45;10.95;;;;;;;;;;5061236;28;20048;-65
2023/10/22 00:55:02;;;;;;;11.07;10.57;;;;;;;;;;5062613;28;20025;-64
2023/10/22 00:57:27;;;;;;;10.98;10.48;;;;;;;;;;5059176;28;20025;-65
2023/10/22 00:59:53;;;;;;;10.57;10.07;;;;;;;;;;5062869;28;20485;-63
2023/10/22 01:02:22;;;;;;;10.90;10.40;;;;;;;;;;5063781;28;20024;-64
2023/10/22 01:04:47;;;;;;;12.13;11.52;;;;;;;;;;5061654;28;20099;-64
2023/10/22 01:07:13;;;;;;;11.25;10.75;;;;;;;;;;5057497;28;20100;-64
2023/10/22 01:09:38;;;;;;;10.73;10.23;;;;;;;;;;5066119;28;20029;-65
2023/10/22 01:12:04;;;;;;;11.10;10.60;;;;;;;;;;5065083;28;20083;-64
2023/10/22 01:14:30;;;;;;;10.82;10.32;;;;;;;;;;5058645;28;20404;-64
2023/10/22 01:16:55;;;;;;;10.80;10.30;;;;;;;;;;5059939;28;20037;-65
2023/10/22 01:19:21;;;;;;;10.88;10.38;;;;;;;;;;5062405;28;20104;-64
2023/10/22 01:21:46;;;;;;;10.95;10.45;;;;;;;;;;5068812;28;20034;-65
2023/10/22 01:24:11;;;;;;;10.95;10.45;;;;;;;;;;5057307;28;20021;-65
2023/10/22 01:26:40;;;;;;;10.70;10.20;;;;;;;;;;5063608;28;20051;-65
2023/10/22 01:29:05;;;;;;;11.70;11.20;;;;;;;;;;5056036;28;20009;-65
2023/10/22 01:31:31;;;;;;;12.18;11.57;;;;;;;;;;5058121;28;20025;-65
2023/10/22 01:33:56;;;;;;;10.60;10.10;;;;;;;;;;5065419;28;20027;-65
2023/10/22 01:36:22;;;;;;;11.10;10.60;;;;;;;;;;5067829;28;20028;-65
2023/10/22 01:38:47;;;;;;;11.10;10.60;;;;;;;;;;5063924;28;20099;-64
2023/10/22 01:41:13;;;;;;;10.90;10.40;;;;;;;;;;5058824;28;20025;-64
2023/10/22 01:43:38;;;;;;;10.52;10.02;;;;;;;;;;5059194;28;20021;-65
2023/10/22 01:46:03;;;;;;;10.48;9.98;;;;;;;;;;5066247;28;20056;-65
2023/10/22 01:48:28;;;;;;;11.18;10.68;;;;;;;;;;5061143;28;20020;-64
2023/10/22 01:50:54;;;;;;;11.00;10.50;;;;;;;;;;5067389;28;20021;-65
2023/10/22 01:53:19;;;;;;;10.73;10.23;;;;;;;;;;5057590;28;20457;-65
2023/10/22 01:55:44;;;;;;;10.98;10.48;;;;;;;;;;5057217;28;20037;-65
2023/10/22 01:58:10;;;;;;;10.80;10.30;;;;;;;;;;5065704;28;20028;-65
2023/10/22 02:00:36;;;;;;;10.60;10.10;;;;;;;;;;5062011;28;20036;-65
2023/10/22 02:03:01;;;;;;;10.80;10.30;;;;;;;;;;5067428;28;20025;-64
2023/10/22 02:05:26;;;;;;;11.05;10.55;;;;;;;;;;5065099;28;20112;-65
2023/10/22 02:07:51;;;;;;;11.20;10.70;;;;;;;;;;5069924;28;20139;-64
2023/10/22 02:10:17;;;;;;;10.70;10.20;;;;;;;;;;5060131;28;20045;-65
2023/10/22 02:12:43;;;;;;;10.60;10.10;;;;;;;;;;5060235;28;20371;-65
2023/10/22 02:15:08;;;;;;;11.25;10.75;;;;;;;;;;5063975;28;20027;-64
2023/10/22 02:17:34;;;;;;;10.82;10.32;;;;;;;;;;5063318;28;20028;-64
2023/10/22 02:19:59;;;;;;;10.70;10.20;;;;;;;;;;5066847;28;20024;-63
2023/10/22 02:22:24;;;;;;;11.00;10.50;;;;;;;;;;5061572;28;20040;-64
2023/10/22 02:24:50;;;;;;;10.50;10.00;;;;;;;;;;5062274;28;20056;-65
2023/10/22 02:27:15;;;;;;;10.68;10.18;;;;;;;;;;5062574;28;20374;-64
2023/10/22 02:29:40;;;;;;;10.57;10.07;;;;;;;;;;5061047;28;20048;-65
2023/10/22 02:32:06;;;;;;;10.95;10.45;;;;;;;;;;5063585;28;20038;-65
2023/10/22 02:34:32;;;;;;;10.70;10.20;;;;;;;;;;5059582;28;20074;-63
2023/10/22 02:36:57;;;;;;;11.15;10.65;;;;;;;;;;5062786;28;20052;-65
2023/10/22 02:39:22;;;;;;;10.75;10.25;;;;;;;;;;5063863;28;20059;-65
2023/10/22 02:41:48;;;;;;;10.70;10.20;;;;;;;;;;5061544;28;20128;-64
2023/10/22 02:44:13;;;;;;;11.88;11.27;;;;;;;;;;5055788;28;20025;-65
2023/10/22 02:46:38;;;;;;;11.00;10.50;;;;;;;;;;5062381;28;20098;-64
2023/10/22 02:49:04;;;;;;;10.90;10.40;;;;;;;;;;5058993;28;20024;-65
2023/10/22 02:51:29;;;;;;;10.60;10.10;;;;;;;;;;5068853;28;20037;-65
2023/10/22 02:53:55;;;;;;;10.52;10.02;;;;;;;;;;5065270;28;20079;-65
2023/10/22 02:56:20;;;;;;;10.85;10.35;;;;;;;;;;5059454;28;20028;-65
2023/10/22 02:58:46;;;;;;;10.45;9.95;;;;;;;;;;5063272;28;20037;-65
2023/10/22 03:01:11;;;;;;;10.68;10.18;;;;;;;;;;5066902;28;20024;-64
2023/10/22 03:03:40;;;;;;;10.43;9.93;;;;;;;;;;5060327;28;20029;-65
2023/10/22 03:06:07;;;;;;;11.27;10.77;;;;;;;;;;5060192;28;20028;-65
2023/10/22 03:08:33;;;;;;;10.70;10.20;;;;;;;;;;5062008;28;20029;-64
2023/10/22 03:10:58;;;;;;;11.23;10.73;;;;;;;;;;5059682;28;20027;-64
2023/10/22 03:13:23;;;;;;;10.57;10.07;;;;;;;;;;5069804;28;20056;-65
2023/10/22 03:15:49;;;;;;;10.50;10.00;;;;;;;;;;5062332;28;20120;-64
2023/10/22 03:18:14;;;;;;;11.23;10.73;;;;;;;;;;5067482;28;20032;-64
2023/10/22 03:20:39;;;;;;;10.90;10.40;;;;;;;;;;5067270;28;21669;-64
2023/10/22 03:23:06;;;;;;;10.75;10.25;;;;;;;;;;5064446;28;20025;-64
2023/10/22 03:25:32;;;;;;;11.32;10.82;;;;;;;;;;5057256;28;20017;-62
2023/10/22 03:27:57;;;;;;;11.10;10.60;;;;;;;;;;5055892;28;20429;-65
2023/10/22 03:30:22;;;;;;;11.75;11.18;;;;;;;;;;5054364;28;20017;-63
2023/10/22 03:32:48;;;;;;;11.85;11.25;;;;;;;;;;5052916;28;20079;-65
2023/10/22 03:35:13;;;;;;;11.38;10.88;;;;;;;;;;5054433;28;20025;-64
2023/10/22 03:37:39;;;;;;;11.77;11.20;;;;;;;;;;5049255;28;20127;-64
2023/10/22 03:40:05;;;;;;;10.30;9.80;;;;;;;;;;5059207;28;20032;-64
2023/10/22 03:42:30;;;;;;;10.40;9.90;;;;;;;;;;5072023;28;20020;-65
2023/10/22 03:44:55;;;;;;;11.00;10.50;;;;;;;;;;5072571;28;20021;-63
2023/10/22 03:47:21;;;;;;;10.93;10.43;;;;;;;;;;5063575;28;20051;-65
2023/10/22 03:49:47;;;;;;;10.93;10.43;;;;;;;;;;5056010;28;20158;-64
2023/10/22 03:52:12;;;;;;;10.60;10.10;;;;;;;;;;5058264;28;20074;-64
2023/10/22 03:54:37;;;;;;;10.85;10.35;;;;;;;;;;5061283;28;20032;-65
2023/10/22 03:57:03;;;;;;;10.90;10.40;;;;;;;;;;5060277;28;20032;-64
2023/10/22 03:59:29;;;;;;;11.30;10.80;;;;;;;;;;5066035;28;20476;-64
2023/10/22 04:01:55;;;;;;;10.50;10.00;;;;;;;;;;5057446;28;20112;-65
2023/10/22 04:04:21;;;;;;;10.73;10.23;;;;;;;;;;5057933;28;20028;-65
2023/10/22 04:06:46;;;;;;;10.40;9.90;;;;;;;;;;5063989;28;20454;-62
2023/10/22 04:09:11;;;;;;;10.60;10.10;;;;;;;;;;5064847;28;20380;-64
2023/10/22 04:11:37;;;;;;;11.00;10.50;;;;;;;;;;5062537;28;20422;-64
2023/10/22 04:14:02;;;;;;;11.25;10.75;;;;;;;;;;5062513;28;20542;-65
2023/10/22 04:16:27;;;;;;;11.10;10.60;;;;;;;;;;5067639;28;20401;-65
2023/10/22 04:18:53;;;;;;;11.20;10.70;;;;;;;;;;5057160;28;20021;-65
2023/10/22 04:21:18;;;;;;;10.73;10.23;;;;;;;;;;5062054;28;20124;-64
2023/10/22 04:23:43;;;;;;;10.75;10.25;;;;;;;;;;5064061;28;20029;-64
2023/10/22 04:26:12;;;;;;;11.30;10.80;;;;;;;;;;5067412;28;20107;-65
2023/10/22 04:28:38;;;;;;;10.65;10.15;;;;;;;;;;5065367;28;20094;-65
2023/10/22 04:31:03;;;;;;;11.00;10.50;;;;;;;;;;5061554;28;20025;-64
2023/10/22 04:33:29;;;;;;;10.32;9.82;;;;;;;;;;5059247;28;20021;-64
2023/10/22 04:35:54;;;;;;;10.50;10.00;;;;;;;;;;5061988;28;20025;-64
2023/10/22 04:38:19;;;;;;;11.10;10.60;;;;;;;;;;5067101;28;20020;-65
2023/10/22 04:40:44;;;;;;;10.35;9.85;;;;;;;;;;5069755;28;20455;-64
2023/10/22 04:43:12;;;;;;;10.68;10.18;;;;;;;;;;5067161;28;20028;-65
2023/10/22 04:45:37;;;;;;;11.05;10.55;;;;;;;;;;5066789;28;20059;-65
2023/10/22 04:48:02;;;;;;;10.82;10.32;;;;;;;;;;5062161;28;20033;-64
2023/10/22 04:50:29;;;;;;;11.00;10.50;;;;;;;;;;5064183;28;20020;-64
2023/10/22 04:52:55;;;;;;;10.77;10.27;;;;;;;;;;5069415;28;20039;-64
2023/10/22 04:55:20;;;;;;;11.05;10.55;;;;;;;;;;5065458;28;20017;-66
2023/10/22 04:57:45;;;;;;;10.80;10.30;;;;;;;;;;5060070;28;20085;-65
2023/10/22 05:00:11;;;;;;;11.02;10.52;;;;;;;;;;5066711;28;20028;-65
2023/10/22 05:02:37;;;;;;;11.50;11.00;;;;;;;;;;5068245;28;20032;-65
2023/10/22 05:05:02;;;;;;;10.68;10.18;;;;;;;;;;5066473;28;20020;-64
2023/10/22 05:07:28;;;;;;;11.25;10.75;;;;;;;;;;5065758;28;20017;-66
2023/10/22 05:09:53;;;;;;;10.80;10.30;;;;;;;;;;5061291;28;20017;-65
2023/10/22 05:12:18;;;;;;;10.88;10.38;;;;;;;;;;5062966;28;20448;-65
2023/10/22 05:14:44;;;;;;;10.70;10.20;;;;;;;;;;5065813;28;20106;-65
2023/10/22 05:17:09;;;;;;;10.57;10.07;;;;;;;;;;5061798;28;20109;-66
2023/10/22 05:19:35;;;;;;;11.68;11.18;;;;;;;;;;5049961;28;20739;-65
2023/10/22 05:22:00;;;;;;;11.00;10.50;;;;;;;;;;5056617;28;20029;-67
2023/10/22 05:24:26;;;;;;;11.32;10.82;;;;;;;;;;5056670;28;20059;-65
2023/10/22 05:26:51;;;;;;;11.77;11.27;;;;;;;;;;5058248;28;20048;-65
2023/10/22 05:29:16;;;;;;;10.80;10.30;;;;;;;;;;5059076;28;20051;-65
2023/10/22 05:31:42;;;;;;;11.10;10.60;;;;;;;;;;5059291;28;20024;-65
2023/10/22 05:34:08;;;;;;;11.00;10.50;;;;;;;;;;5061298;28;20028;-65
2023/10/22 05:36:34;;;;;;;11.20;10.70;;;;;;;;;;5062843;28;20032;-65
2023/10/22 05:38:59;;;;;;;11.18;10.68;;;;;;;;;;5058431;28;20020;-63
2023/10/22 05:41:28;;;;;;;11.60;11.10;;;;;;;;;;5057368;28;20020;-65
2023/10/22 05:43:59;;;;;;;11.27;10.77;;;;;;;;;;5061836;28;20534;-64
2023/10/22 05:46:25;;;;;;;11.30;10.80;;;;;;;;;;5059683;28;20028;-64
2023/10/22 05:48:50;;;;;;;11.38;10.88;;;;;;;;;;5061392;28;20047;-64
2023/10/22 05:51:16;;;;;;;11.32;10.82;;;;;;;;;;5064052;28;20493;-65
2023/10/22 05:53:41;;;;;;;11.73;11.23;;;;;;;;;;5056707;28;20096;-64
2023/10/22 05:56:06;;;;;;;11.48;10.98;;;;;;;;;;5057767;28;20595;-65
2023/10/22 05:58:32;;;;;;;11.60;11.10;;;;;;;;;;5050564;28;20029;-65
2023/10/22 06:00:57;;;;;;;11.45;10.95;;;;;;;;;;5061999;28;20035;-64
2023/10/22 06:03:22;;;;;;;11.60;11.10;;;;;;;;;;5056128;28;20044;-65
2023/10/22 06:05:47;;;;;;;11.60;11.10;;;;;;;;;;5055164;28;20035;-65
2023/10/22 06:08:13;;;;;;;12.00;11.50;;;;;;;;;;5058855;28;20033;-64
2023/10/22 06:10:39;;;;;;;11.80;11.30;;;;;;;;;;5058900;28;20489;-65
2023/10/22 06:13:04;;;;;;;11.93;11.43;;;;;;;;;;5063722;28;20045;-65
2023/10/22 06:15:29;;;;;;;11.77;11.27;;;;;;;;;;5056300;28;20534;-63
2023/10/22 06:17:55;;;;;;;11.70;11.20;;;;;;;;;;5057054;28;20021;-65
2023/10/22 06:20:20;;;;;;;11.57;11.07;;;;;;;;;;5060169;28;20028;-64
2023/10/22 06:22:46;;;;;;;11.75;11.25;;;;;;;;;;5057668;28;20036;-64
2023/10/22 06:25:11;;;;;;;11.48;10.98;;;;;;;;;;5061007;28;20542;-63
2023/10/22 06:27:36;;;;;;;11.52;11.02;;;;;;;;;;5059284;28;20493;-65
2023/10/22 06:30:02;;;;;;;11.93;11.43;;;;;;;;;;5062809;28;20524;-64
2023/10/22 06:32:27;;;;;;;11.70;11.20;;;;;;;;;;5062616;28;20030;-64
2023/10/22 06:34:53;;;;;;;11.50;11.00;;;;;;;;;;5065129;28;20481;-65
2023/10/22 06:37:18;;;;;;;11.80;11.30;;;;;;;;;;5065140;28;20074;-64
2023/10/22 06:39:44;;;;;;;11.55;11.05;;;;;;;;;;5069208;28;20697;-65
2023/10/22 06:42:10;;;;;;;11.70;11.20;;;;;;;;;;5069742;28;20024;-65
2023/10/22 06:44:36;;;;;;;11.60;11.10;;;;;;;;;;5066527;28;20028;-64
2023/10/22 06:47:02;;;;;;;11.68;11.18;;;;;;;;;;5062334;28;20500;-64
2023/10/22 06:49:27;;;;;;;11.63;11.13;;;;;;;;;;5071632;28;20037;-66
2023/10/22 06:51:53;;;;;;;11.60;11.10;;;;;;;;;;5070775;28;20035;-63
2023/10/22 06:54:18;;;;;;;11.70;11.20;;;;;;;;;;5061403;28;20481;-64
2023/10/22 06:56:43;;;;;;;11.90;11.40;;;;;;;;;;5061420;28;20079;-64
2023/10/22 06:59:08;;;;;;;12.10;11.60;;;;;;;;;;5067790;28;20059;-65
2023/10/22 07:01:34;;;;;;;11.98;11.48;;;;;;;;;;5069046;28;20020;-64
2023/10/22 07:03:59;;;;;;;11.80;11.30;;;;;;;;;;5067743;28;20013;-64
2023/10/22 07:06:24;;;;;;;11.97;11.47;;;;;;;;;;5058934;28;20766;-63
2023/10/22 07:08:50;;;;;;;11.83;11.33;;;;;;;;;;5059918;28;20297;-65
2023/10/22 07:11:15;;;;;;;11.90;11.40;;;;;;;;;;5060721;28;20279;-64
2023/10/22 07:13:40;;;;;;;11.88;11.38;;;;;;;;;;5063246;28;20410;-66
2023/10/22 07:16:06;;;;;;;12.07;11.57;;;;;;;;;;5069908;28;20052;-65
2023/10/22 07:18:32;;;;;;;12.15;11.65;;;;;;;;;;5060997;28;20262;-66
2023/10/22 07:20:59;;;;;;;11.93;11.43;;;;;;;;;;5056644;28;20025;-66
2023/10/22 07:23:24;;;;;;;12.07;11.57;;;;;;;;;;5061113;28;20758;-67
2023/10/22 07:25:54;;;;;;;12.27;11.77;;;;;;;;;;5060981;28;20080;-65
2023/10/22 07:28:19;;;;;;;12.15;11.65;;;;;;;;;;5061694;28;20302;-66
2023/10/22 07:30:45;;;;;;;12.13;11.63;;;;;;;;;;5066657;28;20028;-64
2023/10/22 07:33:11;;;;;;;11.85;11.35;;;;;;;;;;5060277;28;20265;-64
2023/10/22 07:35:36;;;;;;;12.30;11.80;;;;;;;;;;5067136;28;20085;-65
2023/10/22 07:38:01;;;;;;;11.88;11.38;;;;;;;;;;5061663;28;20273;-65
2023/10/22 07:40:27;;;;;;;11.87;11.37;;;;;;;;;;5061654;28;20036;-63
2023/10/22 07:42:53;;;;;;;11.80;11.30;;;;;;;;;;5070976;28;20264;-65
2023/10/22 07:45:18;;;;;;;11.80;11.30;;;;;;;;;;5063451;28;20281;-64
2023/10/22 07:47:44;;;;;;;11.63;11.13;;;;;;;;;;5065097;28;20024;-64
2023/10/22 07:50:09;;;;;;;11.73;11.23;;;;;;;;;;5064818;28;20111;-65
2023/10/22 07:52:36;;;;;;;11.60;11.10;;;;;;;;;;5063332;28;20330;-64
2023/10/22 07:55:01;;;;;;;11.90;11.40;;;;;;;;;;5063939;28;20409;-65
2023/10/22 07:57:27;;;;;;;11.70;11.20;;;;;;;;;;5066455;28;20036;-65
2023/10/22 07:59:54;;;;;;;11.75;11.25;;;;;;;;;;5068619;28;20020;-65
2023/10/22 08:02:20;;;;;;;11.70;11.20;;;;;;;;;;5066079;28;20421;-64
2023/10/22 08:04:45;;;;;;;11.80;11.30;;;;;;;;;;5057627;28;20136;-64
2023/10/22 08:07:10;;;;;;;11.57;11.07;;;;;;;;;;5058384;28;20174;-65
2023/10/22 08:09:36;;;;;;;11.63;11.13;;;;;;;;;;5068240;28;20434;-66
2023/10/22 08:12:01;;;;;;;11.50;11.00;;;;;;;;;;5061631;28;20429;-65
2023/10/22 08:14:26;;;;;;;11.48;10.98;;;;;;;;;;5066786;28;20514;-65
2023/10/22 08:16:52;;;;;;;11.63;11.13;;;;;;;;;;5062447;28;20506;-64
2023/10/22 08:19:17;;;;;;;11.90;11.40;;;;;;;;;;5061145;28;20345;-64
2023/10/22 08:21:42;;;;;;;11.70;11.20;;;;;;;;;;5062918;28;20746;-64
2023/10/22 08:24:08;;;;;;;11.68;11.18;;;;;;;;;;5065600;28;20293;-65
2023/10/22 08:26:33;;;;;;;11.82;11.32;;;;;;;;;;5061606;28;20020;-64
2023/10/22 08:28:58;;;;;;;11.73;11.23;;;;;;;;;;5068475;28;20013;-65
2023/10/22 08:31:24;;;;;;;11.70;11.20;;;;;;;;;;5070008;28;20027;-65
2023/10/22 08:33:49;;;;;;;11.63;11.13;;;;;;;;;;5066052;28;20404;-64
2023/10/22 08:36:15;;;;;;;11.38;10.88;;;;;;;;;;5067798;28;20477;-65
2023/10/22 08:38:41;;;;;;;11.70;11.20;;;;;;;;;;5066482;28;20032;-66
2023/10/22 08:41:13;;;;;;;11.48;10.98;;;;;;;;;;5068212;28;20058;-64
2023/10/22 08:43:41;;;;;;;11.43;10.93;;;;;;;;;;5067208;28;20024;-64
2023/10/22 08:46:06;;;;;;;11.93;11.43;;;;;;;;;;5064653;28;20100;-64
2023/10/22 08:48:32;;;;;;;11.90;11.40;;;;;;;;;;5060201;28;20116;-65
2023/10/22 08:51:00;;;;;;;11.68;11.18;;;;;;;;;;5068077;28;20082;-64
2023/10/22 08:53:27;;;;;;;11.60;11.10;;;;;;;;;;5067411;28;20107;-65
2023/10/22 08:55:52;;;;;;;11.45;10.95;;;;;;;;;;5061051;28;20020;-65
2023/10/22 08:58:19;;;;;;;11.27;10.77;;;;;;;;;;5064140;28;20086;-64
2023/10/22 09:00:45;;;;;;;11.52;11.02;;;;;;;;;;5069292;28;20044;-64
2023/10/22 09:03:11;;;;;;;11.45;10.95;;;;;;;;;;5065278;28;20021;-65
2023/10/22 09:05:40;;;;;;;11.25;10.75;;;;;;;;;;5058537;28;20032;-65
2023/10/22 09:08:05;;;;;;;11.55;11.05;;;;;;;;;;5065395;28;20021;-65
2023/10/22 09:10:32;;;;;;;11.50;11.00;;;;;;;;;;5066425;28;20099;-66
2023/10/22 09:13:06;;;;;;;11.48;10.98;;;;;;;;;;5057356;28;20052;-65
2023/10/22 09:15:42;;;;;;;11.70;11.20;;;;;;;;;;5062958;28;20032;-65
2023/10/22 09:18:07;;;;;;;11.40;10.90;;;;;;;;;;5058294;28;20029;-64
2023/10/22 09:20:36;;;;;;;11.63;11.13;;;;;;;;;;5061191;28;20032;-65
2023/10/22 09:23:11;;;;;;;11.70;11.20;;;;;;;;;;5066144;28;20105;-64
2023/10/22 09:25:36;;;;;;;11.70;11.20;;;;;;;;;;5059473;28;20052;-64
2023/10/22 09:28:21;;;;;;;11.50;11.00;;;;;;;;;;5062876;28;20066;-64
2023/10/22 09:30:56;;;;;;;11.60;11.10;;;;;;;;;;5058053;28;20155;-66
2023/10/22 09:33:30;;;;;;;11.73;11.23;;;;;;;;;;5065079;28;20031;-64
2023/10/22 09:35:59;;;;;;;11.45;10.95;;;;;;;;;;5063070;28;20037;-65
2023/10/22 09:38:44;;;;;;;11.60;11.10;;;;;;;;;;5063822;28;20036;-65
2023/10/22 09:41:13;;;;;;;11.70;11.20;;;;;;;;;;5064912;28;20037;-64
2023/10/22 09:43:39;;;;;;;11.70;11.20;;;;;;;;;;5059662;28;20024;-63
2023/10/22 09:46:07;;;;;;;12.00;11.50;;;;;;;;;;5062997;28;20047;-64
2023/10/22 09:48:35;;;;;;;11.77;11.27;;;;;;;;;;5067687;28;20025;-64
2023/10/22 09:51:05;;;;;;;11.40;10.90;;;;;;;;;;5058783;28;20393;-66
2023/10/22 09:53:34;;;;;;;11.90;11.40;;;;;;;;;;5055886;28;20025;-63
2023/10/22 09:56:01;;;;;;;11.85;11.35;;;;;;;;;;5061385;28;20027;-65
2023/10/22 09:58:31;;;;;;;11.80;11.30;;;;;;;;;;5060786;28;20544;-65
2023/10/22 10:00:58;;;;;;;11.82;11.32;;;;;;;;;;5057915;28;20182;-64
2023/10/22 10:03:23;;;;;;;11.52;11.02;;;;;;;;;;5057241;28;20032;-64
2023/10/22 10:05:49;;;;;;;11.60;11.10;;;;;;;;;;5065111;28;20073;-64
2023/10/22 10:08:14;;;;;;;11.68;11.18;;;;;;;;;;5060277;28;20024;-64
2023/10/22 10:10:40;;;;;;;11.70;11.20;;;;;;;;;;5059772;28;20021;-65
2023/10/22 10:13:05;;;;;;;11.80;11.30;;;;;;;;;;5056564;28;20409;-65
2023/10/22 10:15:32;;;;;;;11.60;11.10;;;;;;;;;;5058969;28;20044;-65
2023/10/22 10:18:01;;;;;;;11.95;11.45;;;;;;;;;;5061203;28;20021;-64
2023/10/22 10:20:27;;;;;;;12.02;11.52;;;;;;;;;;5064350;28;22547;-63
2023/10/22 10:23:09;;;;;;;11.40;10.90;;;;;;;;;;5058604;28;20029;-65
2023/10/22 10:25:35;;;;;;;11.45;10.95;;;;;;;;;;5057634;28;20048;-65
2023/10/22 10:28:08;;;;;;;11.48;10.98;;;;;;;;;;5063019;28;20041;-65
2023/10/22 10:30:34;;;;;;;11.45;10.95;;;;;;;;;;5062611;28;20035;-65
2023/10/22 10:33:00;;;;;;;11.50;11.00;;;;;;;;;;5059390;28;20021;-64
2023/10/22 10:35:27;;;;;;;11.98;11.48;;;;;;;;;;5052744;28;20044;-64
2023/10/22 10:38:11;;;;;;;11.70;11.20;;;;;;;;;;5060952;28;20093;-63
2023/10/22 10:40:42;;;;;;;11.65;11.15;;;;;;;;;;5060233;28;20464;-65
2023/10/22 10:43:07;;;;;;;11.48;10.98;;;;;;;;;;5058580;28;20051;-65
2023/10/22 10:45:33;;;;;;;11.50;11.00;;;;;;;;;;5060345;28;20052;-64
2023/10/22 10:47:58;;;;;;;11.38;10.88;;;;;;;;;;5059133;28;20641;-64
2023/10/22 10:50:25;;;;;;;11.43;10.93;;;;;;;;;;5058556;28;20473;-63
2023/10/22 10:52:52;;;;;;;11.48;10.98;;;;;;;;;;5059367;28;20040;-64
2023/10/22 10:55:20;;;;;;;11.73;11.23;;;;;;;;;;5057565;28;20113;-64
2023/10/22 10:57:49;;;;;;;11.57;11.07;;;;;;;;;;5058824;28;20427;-64
2023/10/22 11:00:21;;;;;;;11.45;10.95;;;;;;;;;;5057959;28;20025;-65
2023/10/22 11:02:46;;;;;;;11.40;10.90;;;;;;;;;;5060066;28;20481;-65
2023/10/22 11:05:12;;;;;;;11.50;11.00;;;;;;;;;;5057764;28;20067;-64
2023/10/22 11:07:38;;;;;;;11.70;11.20;;;;;;;;;;5058093;28;20470;-64
2023/10/22 11:10:10;;;;;;;11.52;11.02;;;;;;;;;;5056779;28;20028;-64
2023/10/22 11:12:36;;;;;;;11.20;10.70;;;;;;;;;;5053783;28;20043;-64
2023/10/22 11:15:02;;;;;;;11.48;10.98;;;;;;;;;;5056790;28;20013;-64
2023/10/22 11:17:29;;;;;;;12.07;11.57;;;;;;;;;;5058619;28;20025;-63
2023/10/22 11:19:54;;;;;;;11.57;11.07;;;;;;;;;;5052522;28;20108;-65
2023/10/22 11:22:20;;;;;;;11.63;11.13;;;;;;;;;;5063180;28;20104;-65
2023/10/22 11:24:46;;;;;;;11.50;11.00;;;;;;;;;;5063500;28;20036;-65
2023/10/22 11:27:11;;;;;;;11.70;11.20;;;;;;;;;;5066753;28;20048;-64
2023/10/22 11:29:45;;;;;;;11.40;10.90;;;;;;;;;;5061363;28;20074;-65
2023/10/22 11:32:18;;;;;;;11.32;10.82;;;;;;;;;;5060919;28;20422;-64
2023/10/22 11:34:46;;;;;;;11.40;10.90;;;;;;;;;;5060769;28;20036;-64
2023/10/22 11:37:12;;;;;;;11.70;11.20;;;;;;;;;;5066812;28;20074;-62
2023/10/22 11:39:38;;;;;;;11.70;11.20;;;;;;;;;;5063039;28;20028;-63
2023/10/22 11:42:07;;;;;;;11.70;11.20;;;;;;;;;;5071755;28;20379;-63
2023/10/22 11:44:33;;;;;;;11.40;10.90;;;;;;;;;;5067678;28;20273;-65
2023/10/22 11:47:24;;;;;;;11.48;10.98;;;;;;;;;;5064260;28;20024;-64
2023/10/22 11:49:50;;;;;;;11.30;10.80;;;;;;;;;;5061821;28;20036;-63
2023/10/22 11:52:38;;;;;;;11.40;10.90;;;;;;;;;;5061393;28;20017;-63
2023/10/22 11:55:04;;;;;;;11.43;10.93;;;;;;;;;;5062549;28;20040;-63
2023/10/22 11:57:30;;;;;;;11.63;11.13;;;;;;;;;;5064568;28;20094;-63
2023/10/22 11:59:56;;;;;;;11.25;10.75;;;;;;;;;;5060679;28;20055;-63
2023/10/22 12:02:21;;;;;;;11.48;10.98;;;;;;;;;;5061876;28;20103;-63
2023/10/22 12:04:47;;;;;;;11.02;10.52;;;;;;;;;;5061393;28;20089;-63
2023/10/22 12:07:12;;;;;;;11.25;10.75;;;;;;;;;;5062941;28;20066;-62
2023/10/22 12:09:39;;;;;;;11.80;11.30;;;;;;;;;;5060581;28;20481;-63
2023/10/22 12:12:05;;;;;;;11.50;11.00;;;;;;;;;;5060186;28;20527;-63
2023/10/22 12:14:30;;;;;;;11.77;11.27;;;;;;;;;;5064726;28;20049;-63
2023/10/22 12:16:55;;;;;;;11.70;11.20;;;;;;;;;;5061417;28;20020;-63
2023/10/22 12:19:21;;;;;;;11.75;11.25;;;;;;;;;;5065541;28;20054;-63
2023/10/22 12:21:46;;;;;;;11.67;11.17;;;;;;;;;;5051789;28;20147;-62
2023/10/22 12:24:14;;;;;;;12.02;11.52;;;;;;;;;;5063156;28;20598;-62
2023/10/22 12:26:39;;;;;;;12.10;11.60;;;;;;;;;;5051813;28;20033;-63
2023/10/22 12:29:05;;;;;;;12.02;11.52;;;;;;;;;;5059645;28;20055;-62
2023/10/22 12:31:30;;;;;;;11.90;11.40;;;;;;;;;;5052946;28;20024;-63
2023/10/22 12:33:55;;;;;;;11.82;11.32;;;;;;;;;;5056772;28;20035;-61
2023/10/22 12:36:21;;;;;;;11.85;11.35;;;;;;;;;;5054415;28;20535;-63
2023/10/22 12:38:46;;;;;;;12.00;11.50;;;;;;;;;;5060074;28;20025;-62
2023/10/22 12:41:11;;;;;;;11.80;11.30;;;;;;;;;;5057110;28;20040;-62
2023/10/22 12:43:37;;;;;;;11.80;11.30;;;;;;;;;;5053164;28;20363;-62
2023/10/22 12:46:03;;;;;;;11.90;11.40;;;;;;;;;;5059170;28;20025;-61
2023/10/22 12:48:28;;;;;;;12.98;12.38;;;;;;;;;;5055021;28;20033;-61
2023/10/22 12:50:53;;;;;;;11.70;11.20;;;;;;;;;;5056571;28;20032;-62
2023/10/22 12:53:19;;;;;;;11.77;11.27;;;;;;;;;;5058711;28;20024;-63
2023/10/22 12:55:51;;;;;;;11.60;11.10;;;;;;;;;;5055893;28;20051;-63
2023/10/22 12:58:16;;;;;;;11.73;11.23;;;;;;;;;;5054179;28;20017;-61
2023/10/22 13:00:41;;;;;;;11.65;11.15;;;;;;;;;;5051581;28;20032;-63
2023/10/22 13:03:06;;;;;;;12.07;11.48;;;;;;;;;;5058448;28;20558;-64
2023/10/22 13:05:33;;;;;;;12.00;11.50;;;;;;;;;;5056197;28;20622;-63
2023/10/22 13:07:59;;;;;;;11.85;11.35;;;;;;;;;;5049976;28;20074;-62
2023/10/22 13:10:24;;;;;;;11.82;11.32;;;;;;;;;;5055285;28;20020;-64
2023/10/22 13:12:49;;;;;;;11.63;11.13;;;;;;;;;;5056242;28;20037;-62
2023/10/22 13:15:15;;;;;;;11.50;11.00;;;;;;;;;;5055881;28;20361;-61
2023/10/22 13:17:40;;;;;;;11.75;11.25;;;;;;;;;;5057270;28;20051;-62
2023/10/22 13:20:08;;;;;;;11.68;11.18;;;;;;;;;;5054548;28;21038;-64
2023/10/22 13:22:34;;;;;;;11.50;11.00;;;;;;;;;;5054609;28;20128;-64
2023/10/22 13:24:59;;;;;;;11.52;11.02;;;;;;;;;;5055188;28;20104;-63
2023/10/22 13:27:24;;;;;;;11.55;11.05;;;;;;;;;;5060126;28;20415;-62
2023/10/22 13:29:50;;;;;;;11.77;11.27;;;;;;;;;;5052466;28;20017;-64
2023/10/22 13:32:15;;;;;;;11.68;11.18;;;;;;;;;;5050454;28;20024;-63
2023/10/22 13:34:40;;;;;;;11.65;11.15;;;;;;;;;;5056372;28;20039;-62
2023/10/22 13:37:06;;;;;;;11.52;11.02;;;;;;;;;;5059146;28;20032;-62
2023/10/22 13:39:31;;;;;;;11.82;11.32;;;;;;;;;;5059181;28;20503;-61
2023/10/22 13:41:56;;;;;;;12.50;11.90;;;;;;;;;;5059110;28;20481;-59
2023/10/22 13:44:22;;;;;;;11.68;11.18;;;;;;;;;;5054307;28;20040;-61
2023/10/22 13:46:47;;;;;;;11.57;11.07;;;;;;;;;;5050361;28;20033;-62
2023/10/22 13:49:12;;;;;;;11.20;10.70;;;;;;;;;;5061076;28;20036;-62
2023/10/22 13:51:38;;;;;;;11.13;10.63;;;;;;;;;;5062879;28;20024;-63
2023/10/22 13:54:03;;;;;;;11.50;11.00;;;;;;;;;;5063292;28;20477;-61
2023/10/22 13:56:28;;;;;;;11.10;10.60;;;;;;;;;;5062630;28;20039;-62
2023/10/22 13:58:54;;;;;;;10.70;10.20;;;;;;;;;;5062539;28;20028;-61
2023/10/22 14:01:19;;;;;;;11.05;10.55;;;;;;;;;;5060304;28;20025;-61
2023/10/22 14:03:44;;;;;;;11.35;10.85;;;;;;;;;;5060744;28;20470;-61
2023/10/22 14:06:10;;;;;;;11.50;11.00;;;;;;;;;;5061440;28;20024;-62
2023/10/22 14:08:35;;;;;;;11.27;10.77;;;;;;;;;;5064835;28;20043;-62
2023/10/22 14:11:00;;;;;;;11.43;10.93;;;;;;;;;;5061439;28;20027;-62